Hovedside
METAR-TAF:

METAR-TAF

Lufthavner :

Guilin, Kina

Guilin Liangjiang internasjonale lufthavn

breddegrad: 25-20N, lengdegrad: 110-18E, høyde over havet: 166 m

Gjeldene værobservasjon

Denne rapporten ble laget for 29 minutter siden, klokken 19:00 UTC
Vind 4 kt fra Nordøst
Temperatur 11°C
Luftfuktighet 71%
Trykk 1020 hPa
Sikt: 3500 m
Brutte skyer i en høyde av 6000 ft
dis

METAR: ZGKL 191900Z 04002MPS 3500 HZ BKN060 11/06 Q1020 NOSIG

Tid: 03:29 (19:29 UTC)

Varsel

Denne rapporten ble laget for 4 timer og 12 minutter siden, klokken 15:17 UTC
Varsel gyldig fra 19. klokken 18 UTC til 20. klokken 18 UTC
Vind 6 kt fra Nordøst
Sikt: 3500 m
Brutte skyer i en høyde av 5000 ft
dis

TAF: ZGKL 191517Z 1918/2018 05003MPS 3500 HZ BKN050 TX17/2007Z TN10/1923Z

Værobservasjoner og værvarsel for over 4000 flyplasser (METAR- og TAF-rapporter).

Tilgjengelige stasjoner er representert av de røde og gule prikkene på kartet.

Hold musepekeren over prikken for å se navnet på stasjonen.

Klikk så for å se værobservasjoner og -varsler.

For å forandre kartet kan du klikke på den grønne knappen med svart kryss for å zoome inn, på den grønne knappen med strek for å zoome ut, eller på de grønne pilene for å se tilstøtende kart.


METAR-TAF: